Billings, MT

9:49 AM MDT on May 23, 2015 (GMT -0600)
Downtown Billings | | Change Station
CLOSE
Current Station
Personal Weather Station
Location: Billings, MT
Elevation: 3127 ft
Nearby Weather Stations

Elev 3127 ft 45.78 °N, 108.50 °W | Updated 22 minutes ago

Mostly Cloudy
Mostly Cloudy
57.8 °F
Feels Like 57.8 °F
N
6.7
Wind Variable Wind from North
Gusts 10.7 mph

Today
High -- | Low -- °F
--% Chance of Precip.
Yesterday
High -- | Low -- °F
Precip. -- in
5:34 AM 8:47 PM
Waxing Crescent, 31% visible
Pressure 29.99 in
Visibility 10.0 miles
Clouds Few 3000 ft
Scattered Clouds 11000 ft
Mostly Cloudy 18000 ft
Dew Point 48 °F
Humidity 68%
Rainfall -999.00 in
Snow Depth Not available.
UV 2 out of 12
Pollen 7.80 out of 12
Air Quality Not available.
Flu Activity Sporadic
METAR KBIL 231453Z 05008KT 10SM FEW030 SCT110 BKN180 13/07 A2999

More Conditions Fewer Conditions

Pressure 29.99 in
Visibility 10.0 miles
Clouds Few 3000 ft
Scattered Clouds 11000 ft
Mostly Cloudy 18000 ft
Dew Point 48 °F
Humidity 68%
Rainfall -999.00 in
Snow Depth Not available.
UV 2 out of 12
Pollen 7.80 out of 12
Air Quality Not available.
Flu Activity Sporadic
METAR KBIL 231453Z 05008KT 10SM FEW030 SCT110 BKN180 13/07 A2999

More Conditions Fewer Conditions

10-Day Weather Forecast

Almanac

Astronomy

May. 23, 2015 Rise Set
Actual Time
Civil Twilight
Nautical Twilight
Astronomical Twilight
Moon
Length of Visible Light
Length of Day
Tomorrow will be .
, % of the Moon is Illuminated

Today's Extremes

State Highs State Lows

Community

WunderPhotos

Upload Photos

1,823,504 photos uploaded!

WunderBlogs® & News

Nearby

Air Quality

  Air Quality AQ Index Pollutant
Not available.

Snow Depth

Station Depth Elevation

Earthquake Activity

City Distance Mag. Time & Date
Minimum magnitude displayed is 2.5.

Coastal Water Temperatures

Place Temperature

Stations

Nearby Weather Stations

Station Location Temp. Windchill Dew Point Humidity Wind Precip. Elev Updated Type